This is the latest recevied weather packets stored in our database for station/object N8ESC. If no packets are shown the sender has not sent any weather packets the latest 10 day(s).
| Time | Temp. | Humidity | Pressure | Rain* | Wind** | Luminosity | Snow |
|---|---|---|---|---|---|---|---|
| 1777688053 | 3.33° C | 49% | 1017.1 hPa | 0 mm | - | 0 W/m² | - |
| 1777687750 | 3.33° C | 50% | 1017.1 hPa | 0 mm | - | 0 W/m² | - |
| 1777674120 | 6.67° C | 42% | 1016.2 hPa | 0 mm | - | 144 W/m² | - |
| 1777673816 | 6.11° C | 42% | 1015.9 hPa | 0 mm | - | 167 W/m² | - |
| 1777673513 | 6.67° C | 43% | 1016 hPa | 0 mm | - | 190 W/m² | - |
| 1777673211 | 6.11° C | 43% | 1016 hPa | 0 mm | - | 301 W/m² | - |
| 1777672908 | 6.67° C | 42% | 1015.9 hPa | 0 mm | - | 195 W/m² | - |
| 1777672605 | 6.67° C | 42% | 1016 hPa | 0 mm | - | 197 W/m² | - |
| 1777672300 | 6.11° C | 41% | 1015.8 hPa | 0 mm | - | 182 W/m² | - |
| 1777671995 | 6.67° C | 42% | 1015.7 hPa | 0 mm | - | 172 W/m² | - |
| 1777671691 | 6.67° C | 41% | 1015.8 hPa | 0 mm | - | 197 W/m² | - |
| 1777671388 | 6.67° C | 41% | 1015.9 hPa | 0 mm | - | 226 W/m² | - |
| 1777671084 | 6.11° C | 42% | 1015.6 hPa | 0 mm | - | 235 W/m² | - |
| 1777670781 | 6.11° C | 43% | 1015.7 hPa | 0 mm | - | 237 W/m² | - |
| 1777670477 | 6.67° C | 43% | 1015.6 hPa | 0 mm | - | 209 W/m² | - |
| 1777670174 | 6.11° C | 44% | 1015.6 hPa | 0 mm | - | 215 W/m² | - |
| 1777669872 | 5.56° C | 45% | 1015.7 hPa | 0 mm | - | 188 W/m² | - |
| 1777669568 | 6.67° C | 45% | 1015.6 hPa | 0 mm | - | 183 W/m² | - |
| 1777668961 | 6.11° C | 50% | 1015.7 hPa | 0 mm | - | 194 W/m² | - |
| 1777668659 | 6.11° C | 54% | 1015.7 hPa | 0 mm | - | 162 W/m² | - |
| 1777668355 | 6.11° C | 54% | 1015.7 hPa | 0 mm | - | 230 W/m² | - |
| 1777667748 | 5° C | 60% | 1015.8 hPa | 0 mm | - | 234 W/m² | - |
| 1777667446 | 5° C | 60% | 1015.5 hPa | 0 mm | - | 248 W/m² | - |
| 1777667143 | 5.56° C | 63% | 1015.6 hPa | 0 mm | - | 329 W/m² | - |
| 1777666839 | 5° C | 66% | 1015.5 hPa | 0 mm | - | 448 W/m² | - |
* Rain latest hour (hover to see other rain measurements)
** Current wind speed in m/s (hover to see current wind gust speed)